Time;durP1;ratioP1;P1;durP2;ratioP2;P2;SDS_P1;SDS_P2;PMS_P1;PMS_P2;Temp;Humidity;BMP_temperature;BMP_pressure;BME280_temperature;BME280_humidity;BME280_pressure;Samples;Min_cycle;Max_cycle;Signal;HPM_P1;HPM_P2
2022/08/20 00:02:12;;;;;;;5.17;4.47;;;18.80;99.90;;;;;;4994053;28;20256;-66
2022/08/20 00:04:40;;;;;;;6.53;4.30;;;18.80;99.90;;;;;;4994239;28;20632;-68
2022/08/20 00:07:08;;;;;;;6.00;4.30;;;18.80;99.90;;;;;;4993272;28;20214;-68
2022/08/20 00:09:35;;;;;;;7.00;4.47;;;18.90;99.90;;;;;;4993904;28;20211;-68
2022/08/20 00:12:02;;;;;;;6.20;4.50;;;18.80;99.90;;;;;;4993811;28;20242;-68
2022/08/20 00:14:29;;;;;;;5.77;4.10;;;18.80;99.90;;;;;;4993982;28;20231;-68
2022/08/20 00:16:56;;;;;;;8.97;5.20;;;18.90;99.90;;;;;;4992527;28;20575;-67
2022/08/20 00:19:23;;;;;;;5.47;4.57;;;18.80;99.90;;;;;;4993229;28;20215;-67
2022/08/20 00:21:50;;;;;;;9.37;5.57;;;18.80;99.90;;;;;;4993911;28;20668;-67
2022/08/20 00:24:18;;;;;;;6.87;4.93;;;18.70;99.90;;;;;;4993711;28;20301;-67
2022/08/20 00:26:45;;;;;;;6.93;4.67;;;18.60;99.90;;;;;;4994922;28;20208;-68
2022/08/20 00:29:12;;;;;;;10.43;5.43;;;18.50;99.90;;;;;;4984960;28;20294;-68
2022/08/20 00:31:39;;;;;;;6.43;5.30;;;18.50;99.90;;;;;;4995321;28;20230;-69
2022/08/20 00:34:06;;;;;;;8.37;5.43;;;18.30;99.90;;;;;;5008400;28;20229;-68
2022/08/20 00:36:33;;;;;;;8.40;5.17;;;18.20;99.90;;;;;;5006927;28;20203;-69
2022/08/20 00:39:00;;;;;;;9.00;5.77;;;18.20;99.90;;;;;;4993203;28;20241;-69
2022/08/20 00:41:29;;;;;;;6.53;5.13;;;18.20;99.90;;;;;;5010136;28;20214;-69
2022/08/20 00:44:08;;;;;;;9.73;6.13;;;18.00;99.90;;;;;;5012771;28;20213;-67
2022/08/20 00:46:35;;;;;;;9.73;5.90;;;18.00;99.90;;;;;;5008262;28;20203;-68
2022/08/20 00:49:06;;;;;;;6.77;5.63;;;17.90;99.90;;;;;;4993289;28;20201;-69
2022/08/20 00:51:37;;;;;;;7.33;5.03;;;17.80;99.90;;;;;;4993694;28;20257;-68
2022/08/20 00:54:09;;;;;;;8.50;5.00;;;17.80;99.90;;;;;;4993153;28;20215;-69
2022/08/20 00:56:39;;;;;;;7.87;4.97;;;17.90;99.90;;;;;;4989289;28;20228;-68
2022/08/20 00:59:10;;;;;;;6.67;4.90;;;17.90;99.90;;;;;;4995766;28;20238;-69
2022/08/20 01:01:38;;;;;;;6.63;5.00;;;17.90;99.90;;;;;;5013009;28;20249;-68
2022/08/20 01:04:06;;;;;;;5.50;4.50;;;17.90;99.90;;;;;;5004276;28;20264;-69
2022/08/20 01:06:32;;;;;;;6.53;4.87;;;18.00;99.90;;;;;;4993368;28;20294;-69
2022/08/20 01:09:00;;;;;;;6.23;4.67;;;18.00;99.90;;;;;;4994217;28;20203;-71
2022/08/20 01:11:32;;;;;;;7.27;5.07;;;18.00;99.90;;;;;;4987223;28;20206;-67
2022/08/20 01:14:11;;;;;;;6.03;4.10;;;18.00;99.90;;;;;;5003158;28;20221;-68
2022/08/20 01:16:38;;;;;;;6.27;4.43;;;18.00;99.90;;;;;;5012891;28;20192;-68
2022/08/20 01:19:08;;;;;;;6.37;5.00;;;18.10;99.90;;;;;;4994223;28;20273;-68
2022/08/20 01:21:37;;;;;;;7.17;5.17;;;18.10;99.90;;;;;;4992990;28;20253;-69
2022/08/20 01:24:21;;;;;;;7.73;5.00;;;18.10;99.90;;;;;;4992989;28;20297;-69
2022/08/20 01:26:49;;;;;;;5.83;4.73;;;18.00;99.90;;;;;;4993235;28;20188;-68
2022/08/20 01:29:19;;;;;;;10.67;5.10;;;18.00;99.90;;;;;;4995585;28;20218;-70
2022/08/20 01:31:46;;;;;;;7.97;5.27;;;18.10;99.90;;;;;;5011890;28;20300;-68
2022/08/20 01:34:15;;;;;;;6.23;5.30;;;18.00;99.90;;;;;;5012261;28;20717;-68
2022/08/20 01:36:47;;;;;;;7.13;5.20;;;18.00;99.90;;;;;;5012409;28;20730;-69
2022/08/20 01:39:16;;;;;;;6.07;5.07;;;18.00;99.90;;;;;;4994202;28;20631;-69
2022/08/20 01:42:02;;;;;;;5.80;4.40;;;18.00;99.90;;;;;;4998373;28;20273;-69
2022/08/20 01:44:31;;;;;;;7.50;5.37;;;18.00;99.90;;;;;;4999270;28;20261;-69
2022/08/20 01:47:09;;;;;;;7.30;5.07;;;18.00;99.90;;;;;;4999324;28;20599;-68
2022/08/20 01:49:42;;;;;;;8.20;4.70;;;18.00;99.90;;;;;;4998947;28;20202;-69
2022/08/20 01:52:13;;;;;;;5.57;4.33;;;18.00;99.90;;;;;;4999262;28;20229;-68
2022/08/20 01:54:41;;;;;;;6.50;5.00;;;18.00;99.90;;;;;;5000039;28;20314;-69
2022/08/20 01:57:14;;;;;;;7.47;5.87;;;18.00;99.90;;;;;;4999436;28;20310;-69
2022/08/20 01:59:42;;;;;;;7.90;5.80;;;18.10;99.90;;;;;;5000914;28;20286;-69
2022/08/20 02:02:11;;;;;;;7.73;5.70;;;18.00;99.90;;;;;;5018997;28;20725;-68
2022/08/20 02:04:38;;;;;;;9.40;5.80;;;18.00;99.90;;;;;;5018299;28;20209;-68
2022/08/20 02:07:08;;;;;;;8.33;5.90;;;18.00;99.90;;;;;;5005622;28;20205;-68
2022/08/20 02:09:38;;;;;;;9.57;6.23;;;17.90;99.90;;;;;;4999124;28;20210;-67
2022/08/20 02:12:07;;;;;;;7.13;5.40;;;17.90;99.90;;;;;;5007837;28;20235;-69
2022/08/20 02:14:39;;;;;;;8.97;5.80;;;17.80;99.90;;;;;;5018536;28;20228;-69
2022/08/20 02:17:06;;;;;;;8.97;6.00;;;17.80;99.90;;;;;;5018713;28;20195;-68
2022/08/20 02:19:37;;;;;;;8.07;6.23;;;17.90;99.90;;;;;;5018562;28;20271;-69
2022/08/20 02:22:10;;;;;;;7.13;6.23;;;17.80;99.90;;;;;;5018393;28;20230;-68
2022/08/20 02:24:37;;;;;;;8.83;6.53;;;17.80;99.90;;;;;;5018230;28;20196;-69
2022/08/20 02:27:04;;;;;;;12.20;6.57;;;17.80;99.90;;;;;;5018380;28;20297;-68
2022/08/20 02:29:31;;;;;;;9.33;6.90;;;17.80;99.90;;;;;;5018034;28;20244;-68
2022/08/20 02:31:59;;;;;;;8.13;6.60;;;17.80;99.90;;;;;;5019186;28;20211;-68
2022/08/20 02:34:26;;;;;;;9.70;6.67;;;17.70;99.90;;;;;;5003674;28;20697;-68
2022/08/20 02:36:53;;;;;;;11.87;6.97;;;17.70;99.90;;;;;;4995219;28;20738;-69
2022/08/20 02:39:20;;;;;;;7.70;6.37;;;17.60;99.90;;;;;;4998166;28;20207;-69
2022/08/20 02:41:49;;;;;;;10.03;6.70;;;17.60;99.90;;;;;;4992976;28;20292;-69
2022/08/20 02:44:19;;;;;;;11.63;6.30;;;17.60;99.90;;;;;;4997915;28;20209;-69
2022/08/20 02:46:48;;;;;;;7.33;5.97;;;17.60;99.90;;;;;;4996916;28;20209;-68
2022/08/20 02:49:17;;;;;;;8.87;6.10;;;17.70;99.90;;;;;;4996947;28;20224;-68
2022/08/20 02:51:44;;;;;;;8.50;5.73;;;17.80;99.90;;;;;;4996356;28;20223;-69
2022/08/20 02:54:11;;;;;;;8.37;6.23;;;17.80;99.90;;;;;;4992437;28;20652;-68
2022/08/20 02:56:39;;;;;;;8.70;6.20;;;17.80;99.90;;;;;;4991289;28;20615;-69
2022/08/20 02:59:06;;;;;;;8.33;5.73;;;17.80;99.90;;;;;;4987988;28;20298;-68
2022/08/20 03:01:34;;;;;;;8.83;6.33;;;17.90;99.90;;;;;;4989551;28;20225;-69
2022/08/20 03:04:02;;;;;;;8.03;5.80;;;17.90;99.90;;;;;;5000925;28;20293;-69
2022/08/20 03:06:31;;;;;;;6.90;5.80;;;18.00;99.90;;;;;;5015041;28;20709;-70
2022/08/20 03:08:58;;;;;;;8.20;5.80;;;18.00;99.90;;;;;;5000822;28;20246;-69
2022/08/20 03:11:24;;;;;;;7.43;5.60;;;18.00;99.90;;;;;;4994222;28;20206;-70
2022/08/20 03:13:52;;;;;;;5.80;5.20;;;18.10;99.90;;;;;;4990444;28;20820;-68
2022/08/20 03:16:19;;;;;;;6.73;5.27;;;18.10;99.90;;;;;;4995020;28;20237;-69
2022/08/20 03:18:47;;;;;;;7.33;5.23;;;18.10;99.90;;;;;;4991396;28;20205;-70
2022/08/20 03:21:14;;;;;;;7.40;5.60;;;18.20;99.90;;;;;;4992747;28;20203;-68
2022/08/20 03:23:43;;;;;;;7.73;5.40;;;18.20;99.90;;;;;;4994526;28;20213;-69
2022/08/20 03:26:13;;;;;;;7.97;5.90;;;18.20;99.90;;;;;;4993154;28;20308;-68
2022/08/20 03:28:40;;;;;;;8.40;5.70;;;18.30;99.90;;;;;;4991227;28;20276;-69
2022/08/20 03:31:08;;;;;;;7.27;5.60;;;18.30;99.90;;;;;;4992391;28;20659;-68
2022/08/20 03:33:38;;;;;;;7.87;5.47;;;18.30;99.90;;;;;;4994584;28;20248;-69
2022/08/20 03:36:06;;;;;;;11.77;6.03;;;18.30;99.90;;;;;;4992896;28;20235;-70
2022/08/20 03:38:33;;;;;;;9.93;6.20;;;18.30;99.90;;;;;;4991077;28;20239;-69
2022/08/20 03:41:02;;;;;;;7.53;5.40;;;18.40;99.90;;;;;;4991036;28;20277;-69
2022/08/20 03:43:29;;;;;;;10.83;6.70;;;18.40;99.90;;;;;;4974684;28;20299;-68
2022/08/20 03:45:56;;;;;;;6.53;5.67;;;18.40;99.90;;;;;;4982274;28;20250;-69
2022/08/20 03:48:24;;;;;;;7.47;5.90;;;18.40;99.90;;;;;;4992263;28;20222;-69
2022/08/20 03:50:51;;;;;;;8.87;6.00;;;18.50;99.90;;;;;;4993654;28;20371;-68
2022/08/20 03:53:19;;;;;;;10.57;6.90;;;18.50;99.90;;;;;;4985437;28;20707;-69
2022/08/20 03:55:48;;;;;;;8.13;5.70;;;18.50;99.90;;;;;;4984802;28;20231;-69
2022/08/20 03:58:18;;;;;;;6.87;5.70;;;18.50;99.90;;;;;;4992476;28;20266;-67
2022/08/20 04:00:48;;;;;;;7.60;5.60;;;18.60;99.90;;;;;;4990979;28;20282;-69
2022/08/20 04:03:16;;;;;;;10.53;6.40;;;18.60;99.90;;;;;;4992062;28;20250;-69
2022/08/20 04:05:43;;;;;;;7.57;6.03;;;18.70;99.90;;;;;;4990890;28;20199;-68
2022/08/20 04:08:12;;;;;;;6.30;5.50;;;18.70;99.90;;;;;;4992822;28;20301;-68
2022/08/20 04:10:40;;;;;;;10.03;6.00;;;18.70;99.90;;;;;;4990473;28;20293;-69
2022/08/20 04:13:08;;;;;;;9.17;5.90;;;18.70;99.90;;;;;;4991422;28;20203;-68
2022/08/20 04:15:36;;;;;;;10.73;6.50;;;18.80;99.90;;;;;;4991230;28;20314;-69
2022/08/20 04:18:06;;;;;;;6.97;5.30;;;18.80;99.90;;;;;;4991926;28;20212;-69
2022/08/20 04:20:35;;;;;;;7.03;5.70;;;18.90;99.90;;;;;;4989196;28;20231;-68
2022/08/20 04:23:02;;;;;;;7.03;5.30;;;18.90;99.90;;;;;;4988188;28;20290;-69
2022/08/20 04:25:31;;;;;;;10.17;5.97;;;19.00;99.90;;;;;;4988771;28;20229;-68
2022/08/20 04:27:59;;;;;;;9.20;6.60;;;19.00;99.90;;;;;;4993456;28;20261;-69
2022/08/20 04:30:26;;;;;;;7.43;5.90;;;19.10;99.90;;;;;;4992223;28;20231;-70
2022/08/20 04:32:55;;;;;;;7.63;5.70;;;19.20;99.90;;;;;;4992550;28;20218;-68
2022/08/20 04:35:24;;;;;;;10.30;6.30;;;19.10;99.90;;;;;;4992871;28;20227;-68
2022/08/20 04:37:58;;;;;;;7.93;6.50;;;19.20;99.90;;;;;;4991277;28;20258;-69
2022/08/20 04:43:10;;;;;;;7.13;5.60;;;19.30;99.90;;;;;;4990222;28;20210;-68
2022/08/20 04:45:38;;;;;;;11.07;5.37;;;19.40;99.90;;;;;;4995763;28;20209;-70
2022/08/20 04:48:07;;;;;;;8.93;6.10;;;19.40;99.90;;;;;;4990499;28;20218;-69
2022/08/20 04:50:36;;;;;;;9.03;5.97;;;19.50;99.90;;;;;;4993785;28;20207;-69
2022/08/20 04:53:05;;;;;;;8.93;5.43;;;19.40;99.90;;;;;;4990396;28;20208;-69
2022/08/20 04:55:32;;;;;;;6.17;5.00;;;19.50;99.90;;;;;;4989044;28;20315;-70
2022/08/20 04:58:03;;;;;;;7.83;4.50;;;19.50;99.90;;;;;;4987373;28;20208;-70
2022/08/20 05:00:30;;;;;;;7.00;5.03;;;19.50;99.90;;;;;;4987453;28;20231;-70
2022/08/20 05:02:57;;;;;;;5.83;4.53;;;19.60;99.90;;;;;;4991355;28;20290;-69
2022/08/20 05:05:26;;;;;;;4.90;4.30;;;19.60;99.90;;;;;;4988988;28;20204;-69
2022/08/20 05:07:53;;;;;;;6.70;5.30;;;19.50;99.90;;;;;;4994141;28;20554;-69
2022/08/20 05:10:22;;;;;;;6.63;5.27;;;19.60;99.90;;;;;;4985247;28;20627;-70
2022/08/20 05:12:49;;;;;;;7.27;5.17;;;19.60;99.90;;;;;;4989001;28;21502;-70
2022/08/20 05:15:16;;;;;;;7.33;5.23;;;19.60;99.90;;;;;;4985982;28;20600;-70
2022/08/20 05:17:44;;;;;;;6.70;5.43;;;19.60;99.90;;;;;;4985467;28;20203;-69
2022/08/20 05:20:15;;;;;;;6.47;4.87;;;19.60;99.90;;;;;;4989121;28;20548;-68
2022/08/20 05:22:44;;;;;;;7.37;4.60;;;19.60;99.90;;;;;;4991838;28;20685;-69
2022/08/20 05:25:11;;;;;;;6.07;4.43;;;19.70;99.90;;;;;;4991156;28;20239;-71
2022/08/20 05:27:38;;;;;;;5.00;3.83;;;19.70;99.90;;;;;;4983843;28;20211;-69
2022/08/20 05:30:08;;;;;;;4.70;4.27;;;19.80;99.90;;;;;;4991654;28;20230;-69
2022/08/20 05:32:36;;;;;;;5.20;4.30;;;19.70;99.90;;;;;;4989043;28;20214;-69
2022/08/20 05:35:03;;;;;;;9.50;4.73;;;19.70;99.90;;;;;;4991614;28;20304;-69
2022/08/20 05:37:30;;;;;;;6.20;4.40;;;19.80;99.90;;;;;;4985590;28;20330;-69
2022/08/20 05:39:59;;;;;;;7.07;3.80;;;19.80;99.90;;;;;;4988832;28;20207;-69
2022/08/20 05:42:28;;;;;;;12.83;4.50;;;19.90;99.90;;;;;;4989820;28;20208;-70
2022/08/20 05:44:55;;;;;;;8.67;4.17;;;20.00;99.90;;;;;;4991801;28;20212;-71
2022/08/20 05:47:27;;;;;;;5.77;4.40;;;20.10;99.90;;;;;;4990265;28;20200;-70
2022/08/20 05:49:54;;;;;;;6.17;4.03;;;20.20;99.90;;;;;;4989790;28;20202;-70
2022/08/20 05:52:21;;;;;;;6.07;4.57;;;20.20;99.90;;;;;;4991846;28;20213;-73
2022/08/20 05:54:48;;;;;;;4.27;3.67;;;20.20;99.90;;;;;;4992477;28;20298;-70
2022/08/20 05:57:19;;;;;;;6.27;4.33;;;20.30;99.90;;;;;;4989215;28;20743;-69
2022/08/20 05:59:46;;;;;;;4.33;3.43;;;20.40;99.90;;;;;;4992584;28;20229;-69
2022/08/20 06:04:54;;;;;;;5.07;3.87;;;20.60;99.90;;;;;;4990163;28;20206;-69
2022/08/20 06:07:21;;;;;;;8.00;4.20;;;20.60;99.90;;;;;;4987521;28;20214;-71
2022/08/20 06:09:48;;;;;;;6.83;4.87;;;20.70;99.90;;;;;;4989431;28;20590;-70
2022/08/20 06:12:16;;;;;;;7.20;6.17;;;20.80;99.90;;;;;;4988312;28;20292;-70
2022/08/20 06:14:46;;;;;;;10.57;6.50;;;20.90;99.90;;;;;;4983756;28;20204;-70
2022/08/20 06:17:14;;;;;;;9.43;6.37;;;21.00;99.90;;;;;;4992238;28;20227;-72
2022/08/20 06:19:43;;;;;;;9.17;6.10;;;21.10;99.90;;;;;;4990094;28;20295;-69
2022/08/20 06:22:10;;;;;;;8.73;5.87;;;21.10;99.90;;;;;;4983894;28;20267;-70
2022/08/20 06:24:37;;;;;;;7.53;5.87;;;21.10;99.90;;;;;;4992021;28;20654;-71
2022/08/20 06:27:05;;;;;;;7.43;5.57;;;21.10;99.90;;;;;;4988326;28;20314;-70
2022/08/20 06:29:33;;;;;;;7.17;4.47;;;21.00;99.90;;;;;;4990047;28;20262;-71
2022/08/20 06:32:02;;;;;;;8.10;5.67;;;21.10;99.90;;;;;;4991566;28;20204;-69
2022/08/20 06:34:29;;;;;;;6.50;4.83;;;21.20;99.90;;;;;;4992500;28;20215;-71
2022/08/20 06:36:57;;;;;;;5.40;3.97;;;21.30;99.90;;;;;;4993600;28;20234;-72
2022/08/20 06:39:25;;;;;;;4.87;3.77;;;21.20;99.90;;;;;;4993003;28;20286;-70
2022/08/20 06:41:52;;;;;;;5.27;3.77;;;21.30;99.90;;;;;;4992300;28;20281;-72
2022/08/20 06:44:19;;;;;;;8.47;4.30;;;21.30;99.90;;;;;;4992696;28;20211;-71
2022/08/20 06:46:46;;;;;;;5.83;4.20;;;21.40;99.90;;;;;;4988323;28;20251;-70
2022/08/20 06:49:14;;;;;;;6.70;3.90;;;21.50;99.90;;;;;;4988256;28;20305;-69
2022/08/20 06:51:41;;;;;;;5.30;4.20;;;21.50;99.90;;;;;;4992263;28;20211;-71
2022/08/20 06:54:08;;;;;;;4.47;3.90;;;21.60;99.90;;;;;;4993747;28;20282;-70
2022/08/20 06:56:35;;;;;;;6.20;4.27;;;21.60;99.90;;;;;;4993568;28;20228;-71
2022/08/20 06:59:02;;;;;;;5.27;3.73;;;21.60;99.90;;;;;;4991812;28;20342;-71
2022/08/20 07:01:29;;;;;;;7.77;3.80;;;21.60;99.90;;;;;;4988871;28;20250;-70
2022/08/20 07:03:58;;;;;;;5.70;4.07;;;21.50;99.90;;;;;;4994729;28;20290;-73
2022/08/20 07:06:27;;;;;;;6.17;4.27;;;21.50;99.90;;;;;;4986997;28;20204;-70
2022/08/20 07:08:54;;;;;;;4.80;3.40;;;21.60;99.90;;;;;;4987659;28;20238;-68
2022/08/20 07:11:21;;;;;;;4.80;3.30;;;21.70;99.90;;;;;;4993675;28;20205;-68
2022/08/20 07:13:48;;;;;;;4.07;3.20;;;21.80;99.90;;;;;;4992325;28;20199;-69
2022/08/20 07:16:15;;;;;;;3.40;3.03;;;21.90;99.90;;;;;;4993654;28;20227;-70
2022/08/20 07:18:42;;;;;;;4.30;3.23;;;21.80;99.90;;;;;;4989965;28;20211;-69
2022/08/20 07:21:10;;;;;;;4.90;2.80;;;21.90;99.90;;;;;;4993536;28;20659;-70
2022/08/20 07:23:40;;;;;;;2.90;2.60;;;22.00;99.90;;;;;;4994685;28;20734;-69
2022/08/20 07:26:07;;;;;;;3.93;2.80;;;22.10;99.90;;;;;;4989778;28;20216;-71
2022/08/20 07:28:34;;;;;;;3.20;2.60;;;22.20;99.90;;;;;;4990027;28;20214;-70
2022/08/20 07:33:45;;;;;;;2.87;2.40;;;22.20;99.90;;;;;;4992549;28;20205;-71
2022/08/20 07:36:13;;;;;;;4.70;2.57;;;22.20;99.90;;;;;;4993640;28;20228;-70
2022/08/20 07:38:44;;;;;;;3.97;2.77;;;22.20;99.90;;;;;;4993479;28;20242;-70
2022/08/20 07:41:13;;;;;;;3.63;2.43;;;22.20;99.90;;;;;;4993887;28;20206;-71
2022/08/20 07:43:41;;;;;;;2.77;2.50;;;22.20;99.90;;;;;;4993462;28;20279;-71
2022/08/20 07:46:09;;;;;;;4.03;2.60;;;22.30;99.90;;;;;;4991916;28;20630;-71
2022/08/20 07:48:38;;;;;;;2.23;2.03;;;22.30;99.90;;;;;;4991976;28;20578;-70
2022/08/20 07:51:06;;;;;;;4.13;2.13;;;22.30;99.90;;;;;;4992968;28;20259;-69
2022/08/20 07:53:34;;;;;;;3.20;2.10;;;22.20;99.90;;;;;;4994199;28;20205;-69
2022/08/20 07:56:04;;;;;;;4.03;2.10;;;22.30;99.90;;;;;;4989910;28;20711;-69
2022/08/20 07:58:31;;;;;;;2.50;1.70;;;22.20;99.90;;;;;;4990816;28;20210;-70
2022/08/20 08:00:58;;;;;;;3.00;1.90;;;22.30;99.90;;;;;;4989827;28;20219;-70
2022/08/20 08:03:26;;;;;;;2.30;2.10;;;22.30;99.90;;;;;;4989326;28;20644;-69
2022/08/20 08:05:53;;;;;;;2.37;2.10;;;22.40;99.90;;;;;;4992545;28;20240;-70
2022/08/20 08:08:24;;;;;;;4.87;2.00;;;22.40;99.90;;;;;;4981894;28;20268;-70
2022/08/20 08:10:57;;;;;;;7.20;2.40;;;22.40;99.90;;;;;;4989386;28;20210;-70
2022/08/20 08:13:27;;;;;;;2.43;2.17;;;22.50;99.90;;;;;;4990727;28;20244;-70
2022/08/20 08:15:57;;;;;;;3.63;2.10;;;22.70;99.90;;;;;;4996339;28;20784;-74
2022/08/20 08:18:28;;;;;;;2.10;1.90;;;22.70;99.90;;;;;;4994632;28;20616;-72
2022/08/20 08:20:55;;;;;;;3.90;2.50;;;22.80;99.90;;;;;;4990890;28;20728;-73
2022/08/20 08:23:23;;;;;;;3.30;2.33;;;22.80;99.90;;;;;;4993134;28;20218;-71
2022/08/20 08:25:51;;;;;;;2.60;2.23;;;22.80;99.90;;;;;;4990150;28;20258;-69
2022/08/20 08:28:20;;;;;;;3.83;2.93;;;22.90;99.90;;;;;;4992942;28;20246;-72
2022/08/20 08:30:49;;;;;;;3.00;2.37;;;22.90;99.90;;;;;;4993819;28;20646;-72
2022/08/20 08:33:31;;;;;;;3.50;2.50;;;22.90;99.90;;;;;;4974215;28;20210;-72
2022/08/20 08:36:01;;;;;;;3.40;2.00;;;22.80;99.90;;;;;;4989976;28;20436;-69
2022/08/20 08:38:29;;;;;;;3.30;2.53;;;22.80;99.90;;;;;;5013121;28;20238;-72
2022/08/20 08:40:58;;;;;;;6.00;2.87;;;22.90;99.90;;;;;;5013206;28;20207;-69
2022/08/20 08:43:27;;;;;;;5.87;2.73;;;22.90;99.90;;;;;;4990574;28;20664;-70
2022/08/20 08:46:00;;;;;;;4.03;2.87;;;22.90;99.90;;;;;;4982722;28;20206;-69
2022/08/20 08:48:34;;;;;;;3.37;2.33;;;22.90;99.90;;;;;;5000927;28;20279;-70
2022/08/20 08:51:03;;;;;;;4.23;2.90;;;22.90;99.90;;;;;;4975357;28;20286;-72
2022/08/20 08:53:35;;;;;;;3.23;2.40;;;23.00;99.90;;;;;;5003466;28;20255;-71
2022/08/20 08:56:02;;;;;;;4.33;2.73;;;23.00;99.90;;;;;;4984319;28;20200;-69
2022/08/20 08:58:32;;;;;;;4.60;2.67;;;23.20;99.90;;;;;;4991883;28;20695;-68
2022/08/20 09:01:03;;;;;;;6.27;2.40;;;23.20;99.90;;;;;;4986860;28;20211;-69
2022/08/20 09:03:33;;;;;;;5.43;2.33;;;23.40;99.90;;;;;;4992507;28;20206;-69
2022/08/20 09:06:01;;;;;;;3.23;2.20;;;23.50;99.90;;;;;;4989358;28;20223;-69
2022/08/20 09:08:33;;;;;;;6.83;2.40;;;23.60;99.90;;;;;;4987904;28;20752;-71
2022/08/20 09:11:05;;;;;;;5.60;2.90;;;23.60;99.90;;;;;;4985161;28;20202;-70
2022/08/20 09:13:32;;;;;;;7.27;2.33;;;23.70;99.90;;;;;;4988038;28;20287;-69
2022/08/20 09:16:00;;;;;;;3.10;2.67;;;23.60;99.90;;;;;;4989116;28;20253;-71
2022/08/20 09:18:27;;;;;;;4.50;3.67;;;23.70;99.90;;;;;;4984880;28;20753;-70
2022/08/20 09:20:54;;;;;;;8.93;2.87;;;23.70;99.90;;;;;;4988776;28;20652;-69
2022/08/20 09:23:21;;;;;;;4.37;2.67;;;23.70;99.90;;;;;;4988605;28;20207;-68
2022/08/20 09:25:49;;;;;;;3.03;2.23;;;23.80;99.90;;;;;;4988945;28;20335;-69
2022/08/20 09:28:15;;;;;;;3.73;2.60;;;23.90;99.90;;;;;;4990751;28;20202;-68
2022/08/20 09:30:43;;;;;;;3.93;2.40;;;23.90;99.90;;;;;;4991207;28;20294;-70
2022/08/20 09:33:11;;;;;;;2.67;2.47;;;23.90;99.90;;;;;;4989109;28;20210;-69
2022/08/20 09:35:39;;;;;;;4.40;2.80;;;23.80;99.90;;;;;;4990845;28;20290;-69
2022/08/20 09:38:06;;;;;;;2.87;2.43;;;23.80;99.90;;;;;;4990861;28;20241;-69
2022/08/20 09:40:33;;;;;;;3.30;2.20;;;23.90;99.90;;;;;;4990860;28;20234;-70
2022/08/20 09:43:02;;;;;;;2.50;2.30;;;24.00;99.90;;;;;;4988562;28;20284;-70
2022/08/20 09:45:29;;;;;;;3.00;2.30;;;24.10;99.90;;;;;;4991107;28;20205;-70
2022/08/20 09:47:56;;;;;;;4.03;2.20;;;24.10;99.90;;;;;;4987955;28;20209;-71
2022/08/20 09:50:24;;;;;;;2.92;2.30;;;24.10;99.90;;;;;;4981449;28;20705;-71
2022/08/20 09:52:52;;;;;;;3.70;2.30;;;24.20;99.90;;;;;;4990671;28;20208;-69
2022/08/20 09:55:24;;;;;;;3.50;2.73;;;24.10;99.90;;;;;;4988273;28;20318;-70
2022/08/20 09:57:51;;;;;;;2.87;2.03;;;24.10;99.90;;;;;;4988012;28;20222;-70
2022/08/20 10:00:20;;;;;;;2.53;2.00;;;24.10;99.90;;;;;;4989666;28;20213;-69
2022/08/20 10:02:48;;;;;;;4.87;2.87;;;24.10;99.90;;;;;;4992340;28;20256;-69
2022/08/20 10:05:15;;;;;;;3.00;2.50;;;24.10;99.90;;;;;;5006812;28;20311;-69
2022/08/20 10:07:43;;;;;;;4.43;2.30;;;24.20;99.90;;;;;;4995403;28;20208;-69
2022/08/20 10:10:13;;;;;;;2.30;2.10;;;24.30;99.90;;;;;;4992783;28;20221;-70
2022/08/20 10:12:41;;;;;;;2.78;2.20;;;24.30;99.90;;;;;;4994663;28;20293;-69
2022/08/20 10:15:10;;;;;;;2.95;2.33;;;24.30;99.90;;;;;;4996107;28;20226;-68
2022/08/20 10:17:38;;;;;;;2.65;2.30;;;24.40;99.90;;;;;;4992200;28;20333;-71
2022/08/20 10:20:07;;;;;;;4.55;2.28;;;24.50;99.90;;;;;;4994626;28;20233;-68
2022/08/20 10:22:34;;;;;;;2.70;2.05;;;24.50;99.90;;;;;;4994946;28;20231;-70
2022/08/20 10:25:02;;;;;;;3.93;2.20;;;24.60;99.90;;;;;;4995486;28;20598;-70
2022/08/20 10:27:29;;;;;;;3.22;2.20;;;24.70;99.90;;;;;;4994870;28;20296;-70
2022/08/20 10:29:56;;;;;;;2.38;2.17;;;24.70;99.90;;;;;;4995522;28;20207;-69
2022/08/20 10:32:23;;;;;;;4.72;2.20;;;24.80;99.90;;;;;;4993598;28;20691;-69
2022/08/20 10:34:50;;;;;;;2.67;2.40;;;24.80;99.90;;;;;;4976251;28;20233;-73
2022/08/20 10:37:19;;;;;;;7.70;2.30;;;24.80;99.90;;;;;;4975742;28;20330;-70
2022/08/20 10:39:46;;;;;;;2.92;2.00;;;24.90;99.90;;;;;;4976637;28;20246;-70
2022/08/20 10:42:15;;;;;;;2.30;1.88;;;24.90;99.90;;;;;;4976254;28;20314;-70
2022/08/20 10:44:42;;;;;;;3.55;1.98;;;24.80;99.90;;;;;;4976406;28;20290;-70
2022/08/20 10:47:18;;;;;;;2.95;2.30;;;24.90;99.90;;;;;;4976421;28;20301;-69
2022/08/20 10:49:45;;;;;;;3.23;2.00;;;24.90;99.90;;;;;;4975501;28;20297;-69
2022/08/20 10:52:12;;;;;;;3.03;2.17;;;25.00;99.90;;;;;;4992624;28;20228;-69
2022/08/20 10:54:41;;;;;;;3.25;2.05;;;25.10;99.90;;;;;;4996038;28;20260;-71
2022/08/20 10:57:08;;;;;;;4.60;2.45;;;25.10;99.90;;;;;;4994912;28;20226;-69
2022/08/20 10:59:40;;;;;;;5.88;2.80;;;25.10;99.90;;;;;;4994044;28;20200;-72
2022/08/20 11:02:07;;;;;;;4.72;2.72;;;25.10;99.90;;;;;;4984558;28;20285;-70
2022/08/20 11:04:34;;;;;;;3.40;2.15;;;25.00;99.90;;;;;;4986047;28;20289;-71
2022/08/20 11:07:14;;;;;;;3.75;2.55;;;25.00;99.90;;;;;;4993440;28;20198;-68
2022/08/20 11:09:42;;;;;;;5.47;2.72;;;25.00;99.90;;;;;;4994268;28;20606;-69
2022/08/20 11:12:10;;;;;;;3.88;2.45;;;25.00;99.90;;;;;;4993637;28;20259;-70
2022/08/20 11:14:38;;;;;;;4.30;2.75;;;24.90;99.90;;;;;;4990707;28;20721;-70
2022/08/20 11:17:06;;;;;;;3.22;2.20;;;24.90;99.90;;;;;;4994000;28;20271;-70
2022/08/20 11:19:38;;;;;;;5.00;2.30;;;25.00;99.90;;;;;;4993802;28;20298;-68
2022/08/20 11:22:04;;;;;;;2.88;2.30;;;25.00;99.90;;;;;;4994040;28;20239;-71
2022/08/20 11:24:31;;;;;;;3.47;2.30;;;25.00;99.90;;;;;;4983307;28;20244;-71
2022/08/20 11:26:58;;;;;;;4.63;2.63;;;25.00;99.90;;;;;;4991421;28;20243;-69
2022/08/20 11:29:25;;;;;;;3.67;2.47;;;25.00;99.90;;;;;;4993611;28;20209;-69
2022/08/20 11:31:54;;;;;;;2.80;2.60;;;25.00;99.90;;;;;;4993679;28;20220;-72
2022/08/20 11:34:20;;;;;;;4.50;2.88;;;25.00;99.90;;;;;;4993646;28;20293;-71
2022/08/20 11:36:48;;;;;;;3.35;2.75;;;25.00;99.90;;;;;;4979344;28;20731;-70
2022/08/20 11:39:16;;;;;;;2.73;2.30;;;25.00;99.90;;;;;;4973983;28;20210;-68
2022/08/20 11:41:43;;;;;;;4.03;2.93;;;25.10;99.90;;;;;;4973372;28;20212;-69
2022/08/20 11:44:10;;;;;;;4.43;2.72;;;25.00;99.90;;;;;;4974321;28;20237;-71
2022/08/20 11:46:37;;;;;;;3.15;2.58;;;25.00;99.90;;;;;;4974804;28;20294;-70
2022/08/20 11:49:05;;;;;;;3.03;2.20;;;25.00;99.90;;;;;;4975083;28;20204;-69
2022/08/20 11:51:32;;;;;;;5.43;2.60;;;25.00;99.90;;;;;;4975307;28;20610;-68
2022/08/20 11:53:59;;;;;;;2.97;2.50;;;25.10;99.90;;;;;;4974761;28;20215;-71
2022/08/20 11:56:26;;;;;;;3.10;2.50;;;25.20;99.90;;;;;;4974994;28;20665;-70
2022/08/20 11:58:53;;;;;;;4.35;2.40;;;25.20;99.90;;;;;;4974791;28;20275;-69
2022/08/20 12:01:20;;;;;;;6.68;2.35;;;25.30;99.90;;;;;;4974943;28;20260;-70
2022/08/20 12:03:47;;;;;;;2.50;1.98;;;25.40;99.90;;;;;;4975120;28;20301;-69
2022/08/20 12:06:15;;;;;;;4.40;2.70;;;25.50;99.90;;;;;;4974876;28;20219;-69
2022/08/20 12:08:42;;;;;;;4.05;2.60;;;25.60;99.90;;;;;;4974735;28;20485;-70
2022/08/20 12:11:09;;;;;;;3.22;2.05;;;25.50;99.90;;;;;;4974873;28;20210;-70
2022/08/20 12:13:37;;;;;;;4.78;2.25;;;25.40;99.90;;;;;;4974860;28;20241;-70
2022/08/20 12:16:05;;;;;;;3.65;2.53;;;25.40;99.90;;;;;;4974126;28;20246;-69
2022/08/20 12:18:32;;;;;;;4.97;2.80;;;25.40;99.90;;;;;;4974664;28;20232;-69
2022/08/20 12:20:59;;;;;;;5.28;2.60;;;25.10;99.90;;;;;;4974530;28;20300;-69
2022/08/20 12:23:27;;;;;;;5.17;2.90;;;25.10;99.90;;;;;;4974584;28;20210;-68
2022/08/20 12:25:54;;;;;;;4.47;2.33;;;24.90;99.90;;;;;;4974464;28;20320;-69
2022/08/20 12:28:21;;;;;;;3.42;2.35;;;24.90;99.90;;;;;;4974509;28;20292;-69
2022/08/20 12:30:48;;;;;;;5.37;2.70;;;24.90;99.90;;;;;;4974495;28;20294;-70
2022/08/20 12:33:15;;;;;;;3.67;2.23;;;24.90;99.90;;;;;;4974706;28;20302;-70
2022/08/20 12:35:42;;;;;;;5.00;2.77;;;24.90;99.90;;;;;;4974428;28;20245;-68
2022/08/20 12:38:09;;;;;;;6.17;2.93;;;24.90;99.90;;;;;;4974400;28;20246;-70
2022/08/20 12:40:39;;;;;;;3.13;2.50;;;24.90;99.90;;;;;;4974491;28;20204;-70
2022/08/20 12:43:07;;;;;;;3.17;2.60;;;24.80;99.90;;;;;;4973701;28;20238;-71
2022/08/20 12:45:35;;;;;;;4.67;2.60;;;24.80;99.90;;;;;;4975482;28;20215;-71
2022/08/20 12:48:06;;;;;;;7.70;3.23;;;24.70;99.90;;;;;;5000830;28;20604;-70
2022/08/20 12:50:34;;;;;;;4.63;2.90;;;24.60;99.90;;;;;;5013313;28;20324;-70
2022/08/20 12:53:01;;;;;;;4.90;3.20;;;24.60;99.90;;;;;;4998418;28;20210;-70
2022/08/20 12:55:29;;;;;;;5.63;3.10;;;24.70;99.90;;;;;;4993257;28;20225;-70
2022/08/20 12:58:01;;;;;;;3.23;2.60;;;24.70;99.90;;;;;;4993904;28;20243;-71
2022/08/20 13:00:31;;;;;;;7.00;3.70;;;24.70;99.90;;;;;;4986805;28;20226;-69